createdAt,value
2022-11-24T00:01:40.941Z,27.60
2022-11-24T00:04:16.413Z,29.40
2022-11-24T00:06:49.462Z,28.60
2022-11-24T00:09:23.159Z,26.80
2022-11-24T00:11:56.380Z,26.70
2022-11-24T00:14:29.402Z,28.10
2022-11-24T00:17:02.530Z,28.10
2022-11-24T00:19:35.920Z,28.00
2022-11-24T00:22:09.700Z,32.00
2022-11-24T00:24:42.678Z,28.60
2022-11-24T00:27:16.303Z,28.60
2022-11-24T00:29:50.445Z,39.10
2022-11-24T00:32:24.257Z,30.40
2022-11-24T00:34:57.077Z,39.10
2022-11-24T00:37:30.275Z,43.60
2022-11-24T00:40:03.399Z,37.10
2022-11-24T00:42:36.645Z,33.60
2022-11-24T00:45:14.115Z,25.00
2022-11-24T00:47:47.625Z,27.80
2022-11-24T00:50:21.631Z,27.20
2022-11-24T00:52:54.605Z,31.40
2022-11-24T00:55:27.816Z,29.40
2022-11-24T00:58:00.916Z,31.00
2022-11-24T01:00:33.984Z,26.20
2022-11-24T01:03:08.040Z,32.40
2022-11-24T01:05:42.812Z,29.90
2022-11-24T01:08:16.547Z,38.90
2022-11-24T01:10:50.427Z,26.80
2022-11-24T01:13:23.616Z,30.90
2022-11-24T01:15:57.174Z,40.70
2022-11-24T01:18:30.427Z,28.80
2022-11-24T01:21:10.056Z,38.20
2022-11-24T01:23:44.218Z,29.30
2022-11-24T01:26:20.316Z,35.00
2022-11-24T01:28:59.311Z,38.10
2022-11-24T01:31:33.214Z,31.00
2022-11-24T01:34:06.840Z,29.40
2022-11-24T01:36:41.031Z,30.90
2022-11-24T01:39:14.869Z,31.00
2022-11-24T01:41:48.030Z,40.50
2022-11-24T01:44:32.072Z,36.40
2022-11-24T01:47:23.420Z,37.70
2022-11-24T01:50:01.603Z,36.50
2022-11-24T01:52:41.623Z,29.80
2022-11-24T01:55:21.062Z,31.90
2022-11-24T01:58:00.882Z,28.60
2022-11-24T02:00:35.986Z,27.10
2022-11-24T02:03:10.222Z,28.30
2022-11-24T02:05:51.259Z,27.80
2022-11-24T02:08:31.907Z,39.50
2022-11-24T02:11:07.727Z,35.30
2022-11-24T02:13:45.048Z,32.10
2022-11-24T02:16:18.279Z,35.90
2022-11-24T02:18:52.007Z,27.90
2022-11-24T02:21:25.349Z,31.60
2022-11-24T02:24:11.820Z,35.60
2022-11-24T02:26:49.127Z,33.40
2022-11-24T02:29:22.745Z,27.80
2022-11-24T02:32:00.973Z,35.50
2022-11-24T02:34:34.318Z,31.50
2022-11-24T02:37:07.863Z,27.50
2022-11-24T02:39:41.417Z,29.50
2022-11-24T02:42:17.298Z,34.80
2022-11-24T02:44:56.876Z,31.70
2022-11-24T02:47:31.631Z,28.20
2022-11-24T02:50:04.831Z,28.20
2022-11-24T02:52:37.881Z,34.40
2022-11-24T02:55:12.197Z,34.40
2022-11-24T02:57:47.403Z,30.10
2022-11-24T03:00:23.501Z,34.00
2022-11-24T03:02:56.595Z,24.30
2022-11-24T03:05:29.652Z,24.00
2022-11-24T03:08:02.668Z,24.80
2022-11-24T03:10:35.642Z,28.60
2022-11-24T03:13:08.746Z,27.50
2022-11-24T03:15:41.901Z,27.90
2022-11-24T03:18:15.559Z,25.60
2022-11-24T03:20:48.632Z,26.10
2022-11-24T03:23:21.693Z,32.60
2022-11-24T03:25:55.448Z,28.00
2022-11-24T03:28:28.661Z,28.90
2022-11-24T03:31:02.258Z,29.20
2022-11-24T03:33:35.687Z,25.40
2022-11-24T03:36:13.238Z,25.70
2022-11-24T03:38:46.907Z,28.90
2022-11-24T03:41:19.893Z,27.30
2022-11-24T03:43:53.128Z,24.80
2022-11-24T03:46:26.168Z,23.40
2022-11-24T03:48:59.254Z,25.00
2022-11-24T03:51:32.269Z,25.90
2022-11-24T03:54:05.343Z,24.90
2022-11-24T03:56:38.960Z,25.40
2022-11-24T03:59:15.231Z,25.80
2022-11-24T04:01:48.775Z,25.70
2022-11-24T04:04:22.007Z,22.00
2022-11-24T04:06:55.094Z,23.80
2022-11-24T04:09:28.129Z,23.60
2022-11-24T04:12:18.640Z,22.60
2022-11-24T04:14:51.766Z,27.60
2022-11-24T04:17:24.983Z,25.10
2022-11-24T04:19:58.121Z,25.30
2022-11-24T04:22:31.669Z,25.50
2022-11-24T04:25:05.646Z,26.10
2022-11-24T04:27:40.792Z,25.00
2022-11-24T04:30:15.444Z,23.00
2022-11-24T04:32:48.511Z,25.20
2022-11-24T04:35:23.219Z,24.00
2022-11-24T04:37:56.524Z,25.40
2022-11-24T04:40:30.501Z,25.30
2022-11-24T04:43:03.939Z,23.80
2022-11-24T04:45:37.044Z,23.60
2022-11-24T04:48:10.578Z,28.90
2022-11-24T04:50:44.161Z,27.00
2022-11-24T04:53:18.115Z,24.70
2022-11-24T04:55:51.633Z,24.40
2022-11-24T04:58:25.891Z,23.70
2022-11-24T05:01:00.334Z,24.40
2022-11-24T05:03:33.582Z,24.40
2022-11-24T05:06:09.346Z,23.60
2022-11-24T05:08:42.234Z,25.70
2022-11-24T05:11:15.784Z,24.50
2022-11-24T05:13:51.093Z,25.80
2022-11-24T05:16:24.121Z,26.00
2022-11-24T05:18:57.106Z,25.70
2022-11-24T05:21:31.240Z,22.80
2022-11-24T05:24:04.663Z,24.90
2022-11-24T05:26:38.456Z,23.90
2022-11-24T05:29:11.776Z,23.00
2022-11-24T05:31:45.013Z,27.50
2022-11-24T05:34:18.670Z,26.30
2022-11-24T05:36:54.695Z,23.50
2022-11-24T05:39:28.128Z,22.80
2022-11-24T05:42:23.189Z,24.70
2022-11-24T05:44:57.809Z,28.60
2022-11-24T05:47:31.342Z,24.00
2022-11-24T05:50:05.185Z,24.90
2022-11-24T05:52:39.041Z,25.10
2022-11-24T05:55:16.192Z,25.70
2022-11-24T05:57:49.146Z,24.20
2022-11-24T06:00:23.283Z,24.50
2022-11-24T06:02:58.437Z,23.50
2022-11-24T06:05:32.607Z,24.70
2022-11-24T06:08:06.022Z,24.80
2022-11-24T06:10:38.752Z,22.70
2022-11-24T06:13:12.396Z,24.70
2022-11-24T06:15:45.898Z,24.60
2022-11-24T06:18:19.041Z,23.50
2022-11-24T06:21:09.753Z,24.60
2022-11-24T06:23:45.393Z,25.20
2022-11-24T06:26:19.100Z,25.20
2022-11-24T06:28:52.674Z,24.50
2022-11-24T06:31:26.039Z,24.30
2022-11-24T06:34:00.993Z,26.30
2022-11-24T06:36:34.007Z,23.70
2022-11-24T06:39:08.221Z,23.50
2022-11-24T06:41:42.056Z,26.20
2022-11-24T06:44:15.552Z,24.20
2022-11-24T06:46:49.364Z,24.40
2022-11-24T06:49:22.588Z,24.60
2022-11-24T06:51:57.237Z,23.70
2022-11-24T06:54:31.063Z,23.40
2022-11-24T06:57:04.992Z,22.80
2022-11-24T06:59:38.816Z,24.40
2022-11-24T07:02:13.795Z,24.60
2022-11-24T07:04:46.880Z,23.10
2022-11-24T07:07:20.307Z,24.20
2022-11-24T07:09:53.413Z,23.80
2022-11-24T07:12:26.655Z,25.10
2022-11-24T07:14:59.540Z,23.80
2022-11-24T07:17:32.820Z,24.50
2022-11-24T07:20:06.659Z,23.80
2022-11-24T07:22:40.392Z,28.30
2022-11-24T07:25:14.932Z,25.10
2022-11-24T07:27:48.271Z,24.50
2022-11-24T07:30:22.044Z,24.60
2022-11-24T07:32:59.820Z,23.20
2022-11-24T07:35:34.028Z,22.60
2022-11-24T07:38:07.602Z,25.30
2022-11-24T07:40:41.078Z,27.10
2022-11-24T07:43:19.808Z,26.70
2022-11-24T07:45:57.988Z,25.40
2022-11-24T07:48:32.147Z,21.70
2022-11-24T07:51:06.754Z,25.80
2022-11-24T07:53:40.905Z,23.50
2022-11-24T07:56:14.698Z,21.80
2022-11-24T07:58:52.663Z,28.20
2022-11-24T08:01:26.834Z,25.90
2022-11-24T08:04:00.150Z,28.20
2022-11-24T08:06:39.699Z,24.70
2022-11-24T08:09:13.895Z,27.30
2022-11-24T08:11:47.477Z,24.60
2022-11-24T08:14:20.379Z,24.10
2022-11-24T08:16:54.126Z,23.40
2022-11-24T08:19:28.659Z,25.40
2022-11-24T08:22:02.726Z,25.60
2022-11-24T08:24:36.202Z,29.10
2022-11-24T08:27:10.207Z,31.90
2022-11-24T08:29:44.943Z,25.10
2022-11-24T08:32:22.236Z,25.30
2022-11-24T08:34:59.693Z,25.90
2022-11-24T08:37:42.095Z,22.80
2022-11-24T08:40:17.210Z,24.60
2022-11-24T08:42:50.401Z,24.30
2022-11-24T08:45:25.646Z,22.90
2022-11-24T08:48:00.343Z,23.40
2022-11-24T08:50:35.845Z,24.00
2022-11-24T08:53:09.278Z,22.70
2022-11-24T08:55:43.167Z,25.90
2022-11-24T08:58:16.845Z,26.20
2022-11-24T09:00:51.115Z,24.10
2022-11-24T09:03:24.302Z,25.00
2022-11-24T09:05:59.104Z,24.10
2022-11-24T09:08:34.551Z,25.00
2022-11-24T09:11:12.284Z,22.50
2022-11-24T09:13:46.208Z,23.10
2022-11-24T09:16:22.425Z,22.80
2022-11-24T09:19:02.721Z,22.00
2022-11-24T09:21:39.325Z,24.10
2022-11-24T09:24:16.777Z,22.20
2022-11-24T09:26:50.900Z,25.50
2022-11-24T09:29:24.508Z,24.00
2022-11-24T09:32:02.047Z,25.50
2022-11-24T09:34:38.061Z,24.10
2022-11-24T09:37:12.530Z,20.40
2022-11-24T09:39:46.473Z,23.40
2022-11-24T09:42:32.151Z,22.70
2022-11-24T09:45:41.996Z,25.30
2022-11-24T09:48:32.414Z,24.20
2022-11-24T09:51:11.932Z,24.60
2022-11-24T09:53:53.182Z,24.60
2022-11-24T09:56:30.300Z,24.70
2022-11-24T09:59:12.209Z,26.50
2022-11-24T10:01:48.672Z,23.40
2022-11-24T10:04:28.134Z,22.60
2022-11-24T10:07:17.626Z,22.20
2022-11-24T10:10:05.207Z,22.90
2022-11-24T10:12:59.388Z,24.30
2022-11-24T10:15:46.566Z,22.50
2022-11-24T10:18:47.176Z,25.60
2022-11-24T10:21:41.308Z,23.10
2022-11-24T10:24:50.137Z,22.60
2022-11-24T10:27:31.720Z,26.10
2022-11-24T10:30:13.373Z,23.10
2022-11-24T10:32:51.403Z,22.90
2022-11-24T10:35:36.879Z,23.50
2022-11-24T10:38:31.127Z,24.90
2022-11-24T10:41:13.955Z,25.50
2022-11-24T10:43:47.406Z,25.30
2022-11-24T10:46:32.539Z,25.20
2022-11-24T10:49:16.495Z,25.90
2022-11-24T10:52:18.383Z,22.50
2022-11-24T10:55:05.740Z,23.40
2022-11-24T10:57:41.908Z,22.50
2022-11-24T11:00:36.173Z,21.30
2022-11-24T11:03:24.799Z,23.90
2022-11-24T11:06:03.618Z,24.40
2022-11-24T11:08:37.259Z,24.90
2022-11-24T11:11:31.717Z,24.40
2022-11-24T11:14:07.921Z,26.00
2022-11-24T11:16:46.171Z,23.30
2022-11-24T11:22:28.709Z,25.40
2022-11-24T11:25:23.056Z,24.20
2022-11-24T11:28:28.449Z,23.70
2022-11-24T11:31:17.545Z,27.10
2022-11-24T11:34:07.333Z,24.50
2022-11-24T11:36:48.671Z,29.20
2022-11-24T11:39:34.047Z,26.90
2022-11-24T11:42:45.816Z,24.60
2022-11-24T11:45:23.056Z,23.60
2022-11-24T11:48:08.042Z,27.50
2022-11-24T11:54:02.049Z,30.10
2022-11-24T11:56:41.275Z,23.20
2022-11-24T11:59:43.168Z,24.10
2022-11-24T12:03:06.945Z,23.20
2022-11-24T12:05:58.317Z,25.00
2022-11-24T12:09:18.589Z,25.90
2022-11-24T12:11:51.710Z,24.70
2022-11-24T12:14:43.317Z,21.50
2022-11-24T12:17:30.918Z,24.00
2022-11-24T12:20:31.399Z,25.10
2022-11-24T12:23:22.372Z,22.40
2022-11-24T12:26:07.590Z,23.40
2022-11-24T12:28:59.075Z,23.70
2022-11-24T12:31:43.315Z,24.50
2022-11-24T12:34:42.098Z,24.30
2022-11-24T12:37:47.339Z,24.70
2022-11-24T12:40:46.670Z,25.10
2022-11-24T12:43:31.623Z,25.50
2022-11-24T12:46:17.747Z,23.60
2022-11-24T12:49:11.045Z,25.10
2022-11-24T12:51:50.685Z,24.90
2022-11-24T12:54:27.490Z,26.10
2022-11-24T12:57:09.605Z,26.60
2022-11-24T12:59:53.260Z,26.40
2022-11-24T13:02:46.665Z,26.30
2022-11-24T13:05:30.120Z,24.90
2022-11-24T13:08:07.742Z,24.60
2022-11-24T13:10:58.824Z,26.10
2022-11-24T13:14:00.127Z,26.30
2022-11-24T13:16:37.167Z,27.90
2022-11-24T13:19:21.825Z,26.90
2022-11-24T13:22:15.536Z,27.50
2022-11-24T13:25:05.857Z,25.00
2022-11-24T13:27:55.735Z,28.40
2022-11-24T13:31:10.070Z,28.40
2022-11-24T13:33:45.517Z,26.80
2022-11-24T13:36:53.845Z,23.20
2022-11-24T13:39:52.644Z,26.70
2022-11-24T13:42:43.428Z,25.90
2022-11-24T13:45:52.573Z,31.50
2022-11-24T13:49:01.731Z,23.40
2022-11-24T13:51:35.570Z,26.40
2022-11-24T13:54:15.496Z,31.40
2022-11-24T13:56:49.360Z,33.10
2022-11-24T13:59:35.810Z,27.60
2022-11-24T14:02:26.948Z,33.80
2022-11-24T14:05:01.478Z,24.90
2022-11-24T14:07:36.361Z,23.10
2022-11-24T14:10:19.573Z,25.50
2022-11-24T14:13:25.579Z,27.90
2022-11-24T14:16:18.089Z,28.70
2022-11-24T14:18:53.444Z,26.50
2022-11-24T14:21:38.740Z,26.30
2022-11-24T14:24:39.950Z,29.50
2022-11-24T14:27:21.680Z,28.70
2022-11-24T14:30:01.880Z,25.60
2022-11-24T14:32:35.643Z,27.10
2022-11-24T14:35:27.372Z,31.00
2022-11-24T14:38:02.947Z,30.10
2022-11-24T14:40:50.395Z,34.90
2022-11-24T14:43:35.010Z,39.50
2022-11-24T14:46:19.633Z,29.40
2022-11-24T14:48:55.892Z,32.70
2022-11-24T14:51:34.700Z,26.80
2022-11-24T14:54:19.839Z,37.70
2022-11-24T14:57:06.358Z,29.80
2022-11-24T14:59:40.754Z,29.40
2022-11-24T15:02:47.828Z,31.80
2022-11-24T15:05:22.595Z,29.00
2022-11-24T15:08:05.039Z,29.80
2022-11-24T15:10:42.498Z,26.00
2022-11-24T15:13:25.265Z,29.70
2022-11-24T15:16:03.908Z,32.60
2022-11-24T15:18:44.808Z,30.20
2022-11-24T15:21:32.072Z,25.70
2022-11-24T15:24:20.934Z,25.60
2022-11-24T15:27:02.218Z,28.50
2022-11-24T15:29:36.036Z,27.70
2022-11-24T15:32:17.330Z,28.00
2022-11-24T15:34:50.514Z,24.90
2022-11-24T15:37:23.591Z,25.20
2022-11-24T15:39:56.638Z,24.30
2022-11-24T15:42:29.489Z,25.70
2022-11-24T15:45:03.618Z,25.70
2022-11-24T15:47:36.959Z,26.10
2022-11-24T15:50:13.306Z,26.30
2022-11-24T15:52:47.574Z,26.10
2022-11-24T15:55:25.568Z,24.20
2022-11-24T15:57:59.821Z,27.00
2022-11-24T16:00:34.242Z,35.30
2022-11-24T16:03:38.338Z,31.10
2022-11-24T16:06:02.889Z,28.60
2022-11-24T16:08:36.998Z,31.60
2022-11-24T16:11:10.159Z,27.40
2022-11-24T16:13:50.109Z,33.00
2022-11-24T16:16:26.716Z,36.20
2022-11-24T16:19:01.734Z,36.60
2022-11-24T16:21:35.503Z,32.80
2022-11-24T16:24:10.810Z,41.70
2022-11-24T16:26:44.947Z,36.10
2022-11-24T16:29:21.486Z,35.90
2022-11-24T16:31:56.225Z,31.10
2022-11-24T16:34:29.758Z,27.40
2022-11-24T16:37:03.569Z,27.80
2022-11-24T16:39:36.812Z,27.20
2022-11-24T16:42:10.181Z,30.00
2022-11-24T16:44:43.717Z,24.50
2022-11-24T16:47:17.406Z,23.80
2022-11-24T16:49:51.888Z,33.40
2022-11-24T16:52:26.354Z,33.60
2022-11-24T16:55:01.956Z,33.00
2022-11-24T16:57:36.767Z,29.30
2022-11-24T17:00:13.720Z,31.10
2022-11-24T17:02:48.269Z,33.00
2022-11-24T17:05:21.825Z,46.20
2022-11-24T17:07:55.602Z,28.60
2022-11-24T17:10:29.489Z,35.20
2022-11-24T17:13:03.648Z,32.00
2022-11-24T17:15:45.322Z,31.90
2022-11-24T17:18:25.421Z,33.90
2022-11-24T17:21:07.754Z,29.20
2022-11-24T17:23:43.167Z,31.40
2022-11-24T17:26:19.922Z,45.70
2022-11-24T17:28:52.910Z,35.50
2022-11-24T17:31:28.678Z,31.30
2022-11-24T17:34:04.065Z,32.20
2022-11-24T17:36:39.055Z,38.50
2022-11-24T17:39:12.964Z,34.80
2022-11-24T17:41:47.371Z,31.90
2022-11-24T17:44:20.921Z,39.20
2022-11-24T17:46:54.616Z,35.00
2022-11-24T17:49:28.311Z,35.70
2022-11-24T17:52:01.886Z,37.00
2022-11-24T17:54:50.234Z,31.90
2022-11-24T17:57:26.950Z,41.50
2022-11-24T18:00:00.642Z,42.30
2022-11-24T18:02:34.234Z,33.80
2022-11-24T18:05:09.166Z,40.00
2022-11-24T18:07:42.436Z,35.40
2022-11-24T18:10:16.635Z,36.80
2022-11-24T18:12:50.626Z,41.00
2022-11-24T18:15:23.794Z,35.00
2022-11-24T18:17:57.930Z,37.60
2022-11-24T18:20:33.006Z,35.40
2022-11-24T18:23:06.381Z,35.30
2022-11-24T18:25:39.587Z,33.20
2022-11-24T18:28:13.345Z,39.20
2022-11-24T18:30:46.595Z,33.20
2022-11-24T18:33:21.306Z,29.70
2022-11-24T18:36:04.907Z,36.60
2022-11-24T18:38:40.331Z,33.30
2022-11-24T18:41:15.589Z,31.20
2022-11-24T18:43:49.568Z,33.80
2022-11-24T18:46:23.771Z,31.20
2022-11-24T18:48:58.003Z,26.80
2022-11-24T18:51:31.425Z,29.90
2022-11-24T18:54:05.742Z,54.80
2022-11-24T18:56:38.980Z,42.90
2022-11-24T18:59:13.882Z,35.50
2022-11-24T19:01:47.648Z,31.10
2022-11-24T19:04:21.885Z,40.10
2022-11-24T19:06:55.617Z,39.40
2022-11-24T19:09:30.191Z,35.50
2022-11-24T19:12:04.236Z,34.50
2022-11-24T19:14:38.412Z,44.60
2022-11-24T19:17:11.446Z,42.30
2022-11-24T19:19:45.474Z,35.70
2022-11-24T19:22:19.781Z,36.50
2022-11-24T19:24:53.205Z,34.30
2022-11-24T19:27:26.398Z,42.20
2022-11-24T19:30:00.180Z,49.50
2022-11-24T19:32:35.845Z,54.40
2022-11-24T19:35:10.613Z,56.80
2022-11-24T19:37:43.542Z,33.60
2022-11-24T19:40:18.767Z,41.30
2022-11-24T19:42:52.798Z,31.30
2022-11-24T19:45:26.096Z,43.50
2022-11-24T19:47:59.765Z,36.70
2022-11-24T19:50:32.466Z,29.70
2022-11-24T19:53:05.793Z,42.60
2022-11-24T19:55:39.056Z,33.90
2022-11-24T19:58:12.763Z,30.70
2022-11-24T20:00:46.806Z,32.60
2022-11-24T20:03:20.026Z,29.50
2022-11-24T20:06:00.695Z,36.00
2022-11-24T20:08:36.434Z,33.70
2022-11-24T20:11:13.634Z,28.20
2022-11-24T20:13:53.066Z,34.10
2022-11-24T20:16:30.045Z,27.40
2022-11-24T20:19:06.090Z,35.10
2022-11-24T20:21:41.723Z,39.80
2022-11-24T20:24:18.199Z,33.00
2022-11-24T20:26:54.725Z,28.50
2022-11-24T20:29:29.468Z,25.60
2022-11-24T20:32:02.777Z,32.70
2022-11-24T20:34:37.767Z,31.80
2022-11-24T20:37:13.593Z,31.90
2022-11-24T20:39:48.011Z,36.00
2022-11-24T20:42:21.020Z,27.50
2022-11-24T20:44:54.315Z,37.20
2022-11-24T20:47:27.962Z,33.60
2022-11-24T20:50:01.188Z,32.50
2022-11-24T20:52:35.009Z,30.80
2022-11-24T20:55:10.050Z,30.90
2022-11-24T20:57:43.209Z,34.10
2022-11-24T21:00:18.241Z,30.90
2022-11-24T21:02:51.745Z,39.50
2022-11-24T21:05:26.850Z,49.80
2022-11-24T21:07:59.781Z,43.20
2022-11-24T21:10:33.047Z,39.40
2022-11-24T21:13:07.091Z,33.60
2022-11-24T21:15:40.461Z,35.50
2022-11-24T21:18:14.621Z,37.70
2022-11-24T21:20:49.367Z,35.50
2022-11-24T21:23:22.476Z,32.80
2022-11-24T21:26:05.175Z,28.20
2022-11-24T21:28:39.267Z,33.50
2022-11-24T21:31:16.973Z,33.10
2022-11-24T21:33:52.302Z,33.70
2022-11-24T21:36:28.079Z,31.70
2022-11-24T21:39:03.134Z,39.40
2022-11-24T21:41:37.922Z,31.90
2022-11-24T21:44:11.731Z,38.40
2022-11-24T21:46:52.465Z,41.00
2022-11-24T21:49:29.333Z,24.80
2022-11-24T21:52:02.874Z,33.60
2022-11-24T21:54:36.868Z,32.40
2022-11-24T23:04:30.470Z,23.90
2022-11-24T23:07:04.276Z,40.00
2022-11-24T23:09:38.241Z,37.50
2022-11-24T23:12:12.313Z,33.20
2022-11-24T23:14:46.178Z,37.20
2022-11-24T23:17:20.030Z,38.90
2022-11-24T23:19:53.483Z,36.40
2022-11-24T23:22:26.881Z,28.80
2022-11-24T23:25:00.596Z,32.40
2022-11-24T23:27:34.350Z,31.50
2022-11-24T23:30:09.830Z,27.00
2022-11-24T23:32:43.868Z,30.00
2022-11-24T23:35:17.541Z,36.90
2022-11-24T23:38:07.562Z,36.90
2022-11-24T23:40:42.378Z,34.70
2022-11-24T23:43:15.766Z,28.10
2022-11-24T23:45:49.711Z,34.40
2022-11-24T23:48:23.477Z,46.20
2022-11-24T23:50:57.432Z,36.70
2022-11-24T23:53:34.484Z,34.80
2022-11-24T23:56:08.939Z,36.20
2022-11-24T23:58:43.103Z,32.20
